createdAt,value
2018-03-03T00:02:27.825Z,53.10
2018-03-03T00:04:57.290Z,54.26
2018-03-03T00:07:26.079Z,55.52
2018-03-03T00:09:54.648Z,55.23
2018-03-03T00:12:23.343Z,58.19
2018-03-03T00:14:52.234Z,57.11
2018-03-03T00:17:21.021Z,56.01
2018-03-03T00:19:49.705Z,55.52
2018-03-03T00:25:21.533Z,55.98
2018-03-03T00:27:51.090Z,55.49
2018-03-03T00:30:19.776Z,55.91
2018-03-03T00:32:48.415Z,54.10
2018-03-03T00:35:18.485Z,53.29
2018-03-03T00:37:47.121Z,58.15
2018-03-03T00:40:16.570Z,57.59
2018-03-03T00:42:45.563Z,58.35
2018-03-03T00:45:14.204Z,55.68
2018-03-03T00:47:42.935Z,58.60
2018-03-03T00:50:12.025Z,56.35
2018-03-03T00:52:40.681Z,59.34
2018-03-03T00:55:09.398Z,59.03
2018-03-03T00:57:38.286Z,58.23
2018-03-03T01:00:06.978Z,58.46
2018-03-03T01:02:35.602Z,58.39
2018-03-03T01:05:05.270Z,57.15
2018-03-03T01:07:33.957Z,54.44
2018-03-03T01:10:02.580Z,56.69
2018-03-03T01:12:32.249Z,55.34
2018-03-03T01:15:00.916Z,55.22
2018-03-03T01:17:29.621Z,55.38
2018-03-03T01:19:58.404Z,57.00
2018-03-03T01:22:27.091Z,59.08
2018-03-03T01:24:55.736Z,59.81
2018-03-03T01:27:25.287Z,57.92
2018-03-03T01:29:53.923Z,58.28
2018-03-03T01:32:22.656Z,56.81
2018-03-03T01:34:51.440Z,54.46
2018-03-03T01:37:20.126Z,55.83
2018-03-03T01:39:48.712Z,57.12
2018-03-03T01:42:17.607Z,57.07
2018-03-03T01:44:46.248Z,57.47
2018-03-03T01:47:14.978Z,56.98
2018-03-03T01:49:43.861Z,55.98
2018-03-03T01:52:12.504Z,55.56
2018-03-03T01:54:41.232Z,53.52
2018-03-03T01:57:09.920Z,52.57
2018-03-03T01:59:38.605Z,54.92
2018-03-03T02:02:07.499Z,55.97
2018-03-03T02:04:36.282Z,54.22
2018-03-03T02:07:04.969Z,52.11
2018-03-03T02:09:33.605Z,53.32
2018-03-03T02:12:03.163Z,54.81
2018-03-03T02:14:31.788Z,54.66
2018-03-03T02:17:01.247Z,53.18
2018-03-03T02:19:29.995Z,56.31
2018-03-03T02:21:58.727Z,54.78
2018-03-03T02:24:27.414Z,54.00
2018-03-03T02:26:56.199Z,54.49
2018-03-03T02:29:24.884Z,56.85
2018-03-03T02:31:53.570Z,54.70
2018-03-03T02:34:22.428Z,53.97
2018-03-03T02:36:51.150Z,57.63
2018-03-03T02:39:19.836Z,57.80
2018-03-03T02:41:48.513Z,57.99
2018-03-03T02:44:17.207Z,57.98
2018-03-03T02:46:45.892Z,59.17
2018-03-03T02:49:14.677Z,58.07
2018-03-03T02:51:43.462Z,58.89
2018-03-03T02:54:12.147Z,59.60
2018-03-03T02:56:40.885Z,58.38
2018-03-03T02:59:10.347Z,57.33
2018-03-03T03:01:38.919Z,55.86
2018-03-03T03:04:07.813Z,55.17
2018-03-03T03:06:36.459Z,55.50
2018-03-03T03:09:05.202Z,56.72
2018-03-03T03:11:34.144Z,55.12
2018-03-03T03:14:02.861Z,55.22
2018-03-03T03:16:31.505Z,55.98
2018-03-03T03:19:00.233Z,57.01
2018-03-03T03:21:28.864Z,57.38
2018-03-03T03:23:58.328Z,57.09
2018-03-03T03:26:27.051Z,55.57
2018-03-03T03:28:56.413Z,56.75
2018-03-03T03:31:24.958Z,58.22
2018-03-03T03:33:53.727Z,58.33
2018-03-03T03:36:23.184Z,58.88
2018-03-03T03:38:51.813Z,58.33
2018-03-03T03:41:21.379Z,57.74
2018-03-03T03:43:50.161Z,59.28
2018-03-03T03:46:18.848Z,58.96
2018-03-03T03:48:47.841Z,57.90
2018-03-03T03:51:16.477Z,57.83
2018-03-03T03:53:45.940Z,57.84
2018-03-03T03:56:14.821Z,56.82
2018-03-03T03:58:43.505Z,55.06
2018-03-03T04:01:12.147Z,55.61
2018-03-03T04:03:40.877Z,54.78
2018-03-03T04:06:09.507Z,57.71
2018-03-03T04:08:38.972Z,57.36
2018-03-03T04:11:08.064Z,58.02
2018-03-03T04:13:36.810Z,57.17
2018-03-03T04:16:05.534Z,59.59
2018-03-03T04:18:34.269Z,62.25
2018-03-03T04:21:03.729Z,59.86
2018-03-03T04:23:32.316Z,58.67
2018-03-03T04:26:01.052Z,60.04
2018-03-03T04:28:30.502Z,60.60
2018-03-03T04:30:59.158Z,58.54
2018-03-03T04:33:28.177Z,58.02
2018-03-03T04:35:56.968Z,58.57
2018-03-03T04:38:25.658Z,57.99
2018-03-03T04:40:54.404Z,57.10
2018-03-03T04:43:23.129Z,57.35
2018-03-03T04:45:51.814Z,57.62
2018-03-03T04:48:20.598Z,61.18
2018-03-03T04:50:49.225Z,57.66
2018-03-03T04:53:18.637Z,59.31
2018-03-03T04:55:49.322Z,56.49
2018-03-03T04:58:18.864Z,57.57
2018-03-03T05:00:47.794Z,55.05
2018-03-03T05:03:18.080Z,57.34
2018-03-03T05:06:05.303Z,55.38
2018-03-03T05:08:38.532Z,54.48
2018-03-03T05:11:07.317Z,54.38
2018-03-03T05:13:36.830Z,55.71
2018-03-03T05:16:11.249Z,57.05
2018-03-03T05:18:45.465Z,56.27
2018-03-03T05:24:19.897Z,57.83
2018-03-03T05:26:54.016Z,57.48
2018-03-03T05:29:28.230Z,57.54
2018-03-03T05:32:03.125Z,57.98
2018-03-03T05:34:32.046Z,56.48
2018-03-03T05:37:20.710Z,56.65
2018-03-03T05:43:00.388Z,57.06
2018-03-03T05:45:30.594Z,55.35
2018-03-03T05:51:23.433Z,55.98
2018-03-03T05:53:57.642Z,57.58
2018-03-03T05:59:34.854Z,54.60
2018-03-03T06:02:08.967Z,55.40
2018-03-03T06:04:38.575Z,55.92
2018-03-03T06:10:16.035Z,54.86
2018-03-03T06:12:44.667Z,55.20
2018-03-03T06:15:13.354Z,55.24
2018-03-03T06:17:42.138Z,54.34
2018-03-03T06:20:10.823Z,56.40
2018-03-03T06:22:39.619Z,52.21
2018-03-03T06:25:08.296Z,52.31
2018-03-03T06:27:36.990Z,52.58
2018-03-03T06:30:05.623Z,51.99
2018-03-03T06:32:35.481Z,55.70
2018-03-03T06:35:04.137Z,55.11
2018-03-03T06:37:32.884Z,53.52
2018-03-03T06:40:01.648Z,51.52
2018-03-03T06:42:30.195Z,49.98
2018-03-03T06:44:58.910Z,52.47
2018-03-03T06:47:27.648Z,51.78
2018-03-03T06:49:57.104Z,50.14
2018-03-03T06:52:25.791Z,46.46
2018-03-03T06:54:54.829Z,48.44
2018-03-03T06:57:24.291Z,52.76
2018-03-03T06:59:52.935Z,54.40
2018-03-03T07:02:21.662Z,53.82
2018-03-03T07:04:50.450Z,54.29
2018-03-03T07:07:19.231Z,53.69
2018-03-03T07:09:47.917Z,52.69
2018-03-03T07:12:16.605Z,47.99
2018-03-03T07:14:50.721Z,46.68
2018-03-03T07:17:19.463Z,44.63
2018-03-03T07:19:48.191Z,43.04
2018-03-03T07:22:17.173Z,45.95
2018-03-03T07:24:45.869Z,45.18
2018-03-03T07:27:14.557Z,40.71
2018-03-03T07:29:43.376Z,45.12
2018-03-03T07:32:12.073Z,46.63
2018-03-03T07:34:41.486Z,44.60
2018-03-03T07:37:10.735Z,44.20
2018-03-03T07:39:39.422Z,41.65
2018-03-03T07:42:08.064Z,38.07
2018-03-03T07:44:36.864Z,38.48
2018-03-03T07:47:05.577Z,34.48
2018-03-03T07:49:34.372Z,32.87
2018-03-03T07:52:03.257Z,32.42
2018-03-03T07:54:31.942Z,33.02
2018-03-03T07:57:12.608Z,33.43
2018-03-03T07:59:41.294Z,32.80
2018-03-03T08:02:09.981Z,35.34
2018-03-03T08:04:38.973Z,38.64
2018-03-03T08:07:07.717Z,39.16
2018-03-03T08:09:37.266Z,39.05
2018-03-03T08:12:05.953Z,33.10
2018-03-03T08:14:34.694Z,31.61
2018-03-03T08:17:04.145Z,33.95
2018-03-03T08:19:33.082Z,33.36
2018-03-03T08:22:02.501Z,31.57
2018-03-03T08:24:31.224Z,32.26
2018-03-03T08:27:00.016Z,33.54
2018-03-03T08:29:28.612Z,31.46
2018-03-03T08:31:57.182Z,32.03
2018-03-03T08:34:27.472Z,31.43
2018-03-03T08:36:56.267Z,31.53
2018-03-03T08:39:24.843Z,31.36
2018-03-03T08:41:53.995Z,30.61
2018-03-03T08:44:23.412Z,29.66
2018-03-03T08:46:52.129Z,31.79
2018-03-03T08:49:20.817Z,33.46
2018-03-03T08:51:49.372Z,32.61
2018-03-03T08:54:17.929Z,35.69
2018-03-03T08:56:47.700Z,39.61
2018-03-03T08:59:16.276Z,36.07
2018-03-03T09:01:44.968Z,34.43
2018-03-03T09:04:13.706Z,34.97
2018-03-03T09:06:42.256Z,36.12
2018-03-03T09:09:11.013Z,32.76
2018-03-03T09:11:39.760Z,34.84
2018-03-03T09:14:08.497Z,40.53
2018-03-03T09:16:37.073Z,34.88
2018-03-03T09:19:06.075Z,36.32
2018-03-03T09:21:34.764Z,37.00
2018-03-03T09:24:03.447Z,38.91
2018-03-03T09:26:32.234Z,32.03
2018-03-03T09:29:00.919Z,33.21
2018-03-03T09:31:29.604Z,33.21
2018-03-03T09:33:58.444Z,35.17
2018-03-03T09:36:27.996Z,35.32
2018-03-03T09:38:56.708Z,38.61
2018-03-03T09:41:25.477Z,33.89
2018-03-03T09:43:54.198Z,30.34
2018-03-03T09:46:22.784Z,28.22
2018-03-03T09:48:51.530Z,29.02
2018-03-03T09:51:20.256Z,31.90
2018-03-03T09:53:48.891Z,33.12
2018-03-03T09:56:18.408Z,38.82
2018-03-03T09:58:47.136Z,37.28
2018-03-03T10:01:15.825Z,35.93
2018-03-03T10:03:44.509Z,32.63
2018-03-03T10:06:13.094Z,30.90
2018-03-03T10:08:41.782Z,29.81
2018-03-03T10:11:10.760Z,31.21
2018-03-03T10:13:39.463Z,33.61
2018-03-03T10:16:08.206Z,34.96
2018-03-03T10:18:37.236Z,37.41
2018-03-03T10:21:06.021Z,36.52
2018-03-03T10:23:34.711Z,31.22
2018-03-03T10:26:03.501Z,31.50
2018-03-03T10:28:32.189Z,29.68
2018-03-03T10:31:00.973Z,30.89
2018-03-03T10:33:29.658Z,30.67
2018-03-03T10:35:58.344Z,31.64
2018-03-03T10:38:26.966Z,31.51
2018-03-03T10:40:56.430Z,30.09
2018-03-03T10:43:25.115Z,32.20
2018-03-03T10:45:53.748Z,31.03
2018-03-03T10:48:23.363Z,33.65
2018-03-03T10:50:52.056Z,30.63
2018-03-03T10:53:20.780Z,28.09
2018-03-03T10:55:49.916Z,26.25
2018-03-03T10:58:19.379Z,29.13
2018-03-03T11:00:50.921Z,31.79
2018-03-03T11:03:19.626Z,31.61
2018-03-03T11:05:48.312Z,31.22
2018-03-03T11:08:17.157Z,28.00
2018-03-03T11:10:45.882Z,27.20
2018-03-03T11:13:14.471Z,25.93
2018-03-03T11:15:43.254Z,26.00
2018-03-03T11:18:11.939Z,25.37
2018-03-03T11:20:40.573Z,25.11
2018-03-03T11:23:10.041Z,25.80
2018-03-03T11:25:39.353Z,24.42
2018-03-03T11:28:08.027Z,24.75
2018-03-03T11:30:36.807Z,28.80
2018-03-03T11:33:05.538Z,32.34
2018-03-03T11:35:35.002Z,31.43
2018-03-03T11:38:03.850Z,31.32
2018-03-03T11:40:33.131Z,31.78
2018-03-03T11:43:01.215Z,28.96
2018-03-03T11:45:30.103Z,27.63
2018-03-03T11:47:58.834Z,25.58
2018-03-03T11:50:27.521Z,25.34
2018-03-03T11:52:56.549Z,28.23
2018-03-03T11:55:26.022Z,32.31
2018-03-03T11:57:54.596Z,28.67
2018-03-03T12:00:23.285Z,28.26
2018-03-03T12:02:51.969Z,27.48
2018-03-03T12:05:20.604Z,26.72
2018-03-03T12:07:49.293Z,27.54
2018-03-03T12:10:18.027Z,27.23
2018-03-03T12:12:46.712Z,26.94
2018-03-03T12:15:15.704Z,27.08
2018-03-03T12:17:44.391Z,30.01
2018-03-03T12:20:12.977Z,36.30
2018-03-03T12:22:41.868Z,34.45
2018-03-03T12:25:10.562Z,30.40
2018-03-03T12:27:39.287Z,27.13
2018-03-03T12:30:09.050Z,29.04
2018-03-03T12:32:37.734Z,36.08
2018-03-03T12:35:06.374Z,32.64
2018-03-03T12:37:35.259Z,33.11
2018-03-03T12:40:04.677Z,36.95
2018-03-03T12:42:33.400Z,37.86
2018-03-03T12:45:02.283Z,34.93
2018-03-03T12:47:30.995Z,31.54
2018-03-03T12:50:00.329Z,35.84
2018-03-03T12:52:29.792Z,34.96
2018-03-03T12:54:58.354Z,36.03
2018-03-03T12:57:27.051Z,32.31
2018-03-03T12:59:56.718Z,32.00
2018-03-03T13:02:26.167Z,30.63
2018-03-03T13:04:54.744Z,30.32
2018-03-03T13:07:23.637Z,28.74
2018-03-03T13:09:52.323Z,30.67
2018-03-03T13:12:21.008Z,29.17
2018-03-03T13:14:49.904Z,31.25
2018-03-03T13:17:18.453Z,27.17
2018-03-03T13:19:47.112Z,26.27
2018-03-03T13:22:16.589Z,27.01
2018-03-03T13:24:45.358Z,27.48
2018-03-03T13:27:14.046Z,27.15
2018-03-03T13:29:42.785Z,26.67
2018-03-03T13:32:12.256Z,26.71
2018-03-03T13:34:40.928Z,28.07
2018-03-03T13:37:10.893Z,28.59
2018-03-03T13:39:39.624Z,27.17
2018-03-03T13:42:08.218Z,27.53
2018-03-03T13:44:36.995Z,27.20
2018-03-03T13:47:05.660Z,27.35
2018-03-03T13:49:34.331Z,27.51
2018-03-03T13:52:03.274Z,26.81
2018-03-03T13:54:32.739Z,25.83
2018-03-03T13:57:01.413Z,26.82
2018-03-03T13:59:30.482Z,27.10
2018-03-03T14:01:59.202Z,28.30
2018-03-03T14:04:27.996Z,26.28
2018-03-03T14:06:56.684Z,26.98
2018-03-03T14:09:25.372Z,26.50
2018-03-03T14:11:53.947Z,25.89
2018-03-03T14:14:22.687Z,26.19
2018-03-03T14:16:52.160Z,25.28
2018-03-03T14:19:20.925Z,26.54
2018-03-03T14:21:49.719Z,25.69
2018-03-03T14:24:18.405Z,25.72
2018-03-03T14:26:47.028Z,26.63
2018-03-03T14:29:16.549Z,26.40
2018-03-03T14:31:45.274Z,27.23
2018-03-03T14:34:14.169Z,27.06
2018-03-03T14:36:43.105Z,27.07
2018-03-03T14:39:12.432Z,26.84
2018-03-03T14:41:41.091Z,30.19
2018-03-03T14:44:10.809Z,29.74
2018-03-03T14:46:39.540Z,30.26
2018-03-03T14:49:08.132Z,29.53
2018-03-03T14:51:37.120Z,31.92
2018-03-03T14:54:06.578Z,31.12
2018-03-03T14:56:36.087Z,30.83
2018-03-03T14:59:05.833Z,31.25
2018-03-03T15:01:34.530Z,31.28
2018-03-03T15:04:03.085Z,33.17
2018-03-03T15:06:31.899Z,34.73
2018-03-03T15:09:00.646Z,35.94
2018-03-03T15:11:30.084Z,35.46
2018-03-03T15:13:58.877Z,33.71
2018-03-03T15:16:27.564Z,32.77
2018-03-03T15:18:56.209Z,31.96
2018-03-03T15:21:24.948Z,32.82
2018-03-03T15:23:54.434Z,32.96
2018-03-03T15:26:23.068Z,33.15
2018-03-03T15:28:52.634Z,34.32
2018-03-03T15:31:21.413Z,35.30
2018-03-03T15:33:51.613Z,39.59
2018-03-03T15:36:20.366Z,41.25
2018-03-03T15:38:49.087Z,43.78
2018-03-03T15:41:17.751Z,41.86
2018-03-03T15:43:46.554Z,40.32
2018-03-03T15:46:15.187Z,40.37
2018-03-03T15:48:44.650Z,40.15
2018-03-03T15:51:13.841Z,40.54
2018-03-03T15:53:42.528Z,41.97
2018-03-03T15:56:11.212Z,42.44
2018-03-03T15:58:40.108Z,44.90
2018-03-03T16:01:08.745Z,47.54
2018-03-03T16:03:37.478Z,47.36
2018-03-03T16:06:06.182Z,44.50
2018-03-03T16:08:34.948Z,44.43
2018-03-03T16:11:03.635Z,44.59
2018-03-03T16:13:32.585Z,44.39
2018-03-03T16:16:01.313Z,45.65
2018-03-03T16:18:29.948Z,46.02
2018-03-03T16:20:59.413Z,46.03
2018-03-03T16:23:27.978Z,46.32
2018-03-03T16:25:56.574Z,47.32
2018-03-03T16:28:25.643Z,47.81
2018-03-03T16:30:54.349Z,47.96
2018-03-03T16:33:23.036Z,49.48
2018-03-03T16:35:51.831Z,47.49
2018-03-03T16:38:20.616Z,47.64
2018-03-03T16:40:49.197Z,48.34
2018-03-03T16:43:18.195Z,48.64
2018-03-03T16:45:46.840Z,48.19
2018-03-03T16:48:15.567Z,48.30
2018-03-03T16:50:44.561Z,49.12
2018-03-03T16:53:13.316Z,48.99
2018-03-03T16:55:41.931Z,49.97
2018-03-03T16:58:10.633Z,49.05
2018-03-03T17:00:39.303Z,47.62
2018-03-03T17:03:07.992Z,47.83
2018-03-03T17:05:37.163Z,49.23
2018-03-03T17:08:05.870Z,49.17
2018-03-03T17:10:34.821Z,48.55
2018-03-03T17:13:03.552Z,48.73
2018-03-03T17:15:32.137Z,49.30
2018-03-03T17:18:00.823Z,48.19
2018-03-03T17:20:29.511Z,48.46
2018-03-03T17:22:58.235Z,48.45
2018-03-03T17:25:27.681Z,49.25
2018-03-03T17:27:56.860Z,49.42
2018-03-03T17:30:25.515Z,49.08
2018-03-03T17:32:54.183Z,49.06
2018-03-03T17:35:22.876Z,49.28
2018-03-03T17:37:51.609Z,49.45
2018-03-03T17:40:20.196Z,50.40
2018-03-03T17:42:48.929Z,50.16
2018-03-03T17:45:17.661Z,49.64
2018-03-03T17:47:46.315Z,49.66
2018-03-03T17:50:15.033Z,49.68
2018-03-03T17:52:43.623Z,49.17
2018-03-03T17:55:12.307Z,49.25
2018-03-03T17:57:41.458Z,50.08
2018-03-03T18:00:10.906Z,50.42
2018-03-03T18:02:39.593Z,50.67
2018-03-03T18:05:08.341Z,50.41
2018-03-03T18:07:37.065Z,50.12
2018-03-03T18:10:05.797Z,50.39
2018-03-03T18:12:36.180Z,49.75
2018-03-03T18:15:04.912Z,50.72
2018-03-03T18:17:34.326Z,50.71
2018-03-03T18:20:03.159Z,51.02
2018-03-03T18:22:31.853Z,50.82
2018-03-03T18:25:00.583Z,49.67
2018-03-03T18:27:29.622Z,49.47
2018-03-03T18:29:58.338Z,50.32
2018-03-03T18:32:27.915Z,51.24
2018-03-03T18:34:56.854Z,51.09
2018-03-03T18:37:26.317Z,50.40
2018-03-03T18:39:54.896Z,50.84
2018-03-03T18:42:23.630Z,50.89
2018-03-03T18:44:53.090Z,50.66
2018-03-03T18:47:21.676Z,50.52
2018-03-03T18:49:50.356Z,49.85
2018-03-03T18:52:19.000Z,50.21
2018-03-03T18:54:47.739Z,50.01
2018-03-03T18:57:16.615Z,50.60
2018-03-03T18:59:45.258Z,50.55
2018-03-03T19:02:13.988Z,50.93
2018-03-03T19:04:42.783Z,50.44
2018-03-03T19:07:11.812Z,50.56
2018-03-03T19:09:41.230Z,50.08
2018-03-03T19:12:10.198Z,49.87
2018-03-03T19:14:38.922Z,50.12
2018-03-03T19:17:07.559Z,50.40
2018-03-03T19:19:37.521Z,50.32
2018-03-03T19:22:06.210Z,50.12
2018-03-03T19:24:34.863Z,50.65
2018-03-03T19:27:03.952Z,49.71
2018-03-03T19:29:32.619Z,51.93
2018-03-03T19:32:02.082Z,52.41
2018-03-03T19:34:31.173Z,53.71
2018-03-03T19:36:59.827Z,53.35
2018-03-03T19:39:28.545Z,53.71
2018-03-03T19:41:57.161Z,53.29
2018-03-03T19:44:26.627Z,53.25
2018-03-03T19:46:55.321Z,52.12
2018-03-03T19:49:24.167Z,53.27
2018-03-03T19:51:52.895Z,52.22
2018-03-03T19:54:21.526Z,53.37
2018-03-03T19:56:50.412Z,53.62
2018-03-03T19:59:18.968Z,53.53
2018-03-03T20:01:48.125Z,53.49
2018-03-03T20:04:17.102Z,53.28
2018-03-03T20:06:45.766Z,51.79
2018-03-03T20:09:14.379Z,51.37
2018-03-03T20:11:43.500Z,50.31
2018-03-03T20:14:12.964Z,49.70
2018-03-03T20:16:42.389Z,49.32
2018-03-03T20:19:11.305Z,49.43
2018-03-03T20:21:40.009Z,48.73
2018-03-03T20:24:08.697Z,49.63
2018-03-03T20:26:37.482Z,50.33
2018-03-03T20:29:06.127Z,50.79
2018-03-03T20:31:34.851Z,50.91
2018-03-03T20:34:03.646Z,50.65
2018-03-03T20:36:32.222Z,50.53
2018-03-03T20:39:00.810Z,50.01
2018-03-03T20:41:29.740Z,49.72
2018-03-03T20:43:59.202Z,48.74
2018-03-03T20:46:27.789Z,51.66
2018-03-03T20:48:56.845Z,52.29
2018-03-03T20:51:25.567Z,51.23
2018-03-03T20:53:54.363Z,50.42
2018-03-03T20:56:23.200Z,51.94
2018-03-03T20:58:51.931Z,55.28
2018-03-03T21:01:20.980Z,55.89
2018-03-03T21:03:50.433Z,55.43
2018-03-03T21:06:19.013Z,53.90
2018-03-03T21:08:47.658Z,52.96
2018-03-03T21:11:16.633Z,52.85
2018-03-03T21:13:46.098Z,53.45
2018-03-03T21:16:14.784Z,53.47
2018-03-03T21:18:43.834Z,52.67
2018-03-03T21:21:12.561Z,52.35
2018-03-03T21:23:41.195Z,53.44
2018-03-03T21:26:10.663Z,52.36
2018-03-03T21:28:39.332Z,54.44
2018-03-03T21:31:08.028Z,58.74
2018-03-03T21:33:36.620Z,57.84
2018-03-03T21:36:05.293Z,55.96
2018-03-03T21:38:34.086Z,57.69
2018-03-03T21:41:02.819Z,55.82
2018-03-03T21:43:32.270Z,55.20
2018-03-03T21:46:00.960Z,56.22
2018-03-03T21:48:29.694Z,55.68
2018-03-03T21:50:59.151Z,55.63
2018-03-03T21:53:28.659Z,56.00
2018-03-03T21:55:57.477Z,55.61
2018-03-03T21:58:26.841Z,55.03
2018-03-03T22:00:55.487Z,54.22
2018-03-03T22:03:24.404Z,54.65
2018-03-03T22:05:53.110Z,53.53
2018-03-03T22:08:21.899Z,54.98
2018-03-03T22:10:50.628Z,52.02
2018-03-03T22:13:20.088Z,51.36
2018-03-03T22:15:48.775Z,51.25
2018-03-03T22:18:17.667Z,51.54
2018-03-03T22:20:46.354Z,51.66
2018-03-03T22:23:14.992Z,52.38
2018-03-03T22:25:43.888Z,51.61
2018-03-03T22:28:12.432Z,51.72
2018-03-03T22:30:41.096Z,51.50
2018-03-03T22:33:09.943Z,53.10
2018-03-03T22:35:38.666Z,51.45
2018-03-03T22:38:07.352Z,52.76
2018-03-03T22:40:36.198Z,52.59
2018-03-03T22:43:05.646Z,52.70
2018-03-03T22:45:34.331Z,60.26
2018-03-03T22:48:03.434Z,57.73
2018-03-03T22:50:32.118Z,57.49
2018-03-03T22:53:00.756Z,55.33
2018-03-03T22:55:30.902Z,53.92
2018-03-03T22:57:59.571Z,54.76
2018-03-03T23:00:28.293Z,54.74
2018-03-03T23:02:57.089Z,57.28
2018-03-03T23:05:25.770Z,59.24
2018-03-03T23:07:54.346Z,56.45
2018-03-03T23:10:23.080Z,55.46
2018-03-03T23:12:52.542Z,56.16
2018-03-03T23:15:21.230Z,55.37
2018-03-03T23:17:50.013Z,55.95
2018-03-03T23:20:18.655Z,55.53
2018-03-03T23:22:47.393Z,55.50
2018-03-03T23:25:15.984Z,56.41
2018-03-03T23:27:44.657Z,56.60
2018-03-03T23:30:13.343Z,56.61
2018-03-03T23:32:42.393Z,58.17
2018-03-03T23:35:11.121Z,58.29
2018-03-03T23:37:39.753Z,57.32
2018-03-03T23:40:09.223Z,57.15
2018-03-03T23:42:37.892Z,55.60
2018-03-03T23:45:06.587Z,54.50
2018-03-03T23:47:35.725Z,56.31
2018-03-03T23:50:05.139Z,57.83
2018-03-03T23:52:34.587Z,58.59
2018-03-03T23:55:03.272Z,58.93
2018-03-03T23:57:31.959Z,56.98
